sensor_id;sensor_type;location;lat;lon;timestamp;temperature;humidity
32612;DHT22;19030;49.478;8.986;2023-04-06T00:00:37;0.60;99.90
32612;DHT22;19030;49.478;8.986;2023-04-06T00:02:38;0.60;99.90
32612;DHT22;19030;49.478;8.986;2023-04-06T00:04:38;0.60;99.90
32612;DHT22;19030;49.478;8.986;2023-04-06T00:06:39;0.50;99.90
32612;DHT22;19030;49.478;8.986;2023-04-06T00:08:39;0.50;99.90
32612;DHT22;19030;49.478;8.986;2023-04-06T00:10:40;0.50;99.90
32612;DHT22;19030;49.478;8.986;2023-04-06T00:12:40;0.40;99.90
32612;DHT22;19030;49.478;8.986;2023-04-06T00:14:41;0.40;99.90
32612;DHT22;19030;49.478;8.986;2023-04-06T00:16:41;0.40;99.90
32612;DHT22;19030;49.478;8.986;2023-04-06T00:18:42;0.40;99.90
32612;DHT22;19030;49.478;8.986;2023-04-06T00:20:42;0.30;99.90
32612;DHT22;19030;49.478;8.986;2023-04-06T00:22:43;0.30;99.90
32612;DHT22;19030;49.478;8.986;2023-04-06T00:24:44;0.30;99.90
32612;DHT22;19030;49.478;8.986;2023-04-06T00:26:44;0.30;99.90
32612;DHT22;19030;49.478;8.986;2023-04-06T00:28:45;0.30;99.90
32612;DHT22;19030;49.478;8.986;2023-04-06T00:30:45;0.20;99.90
32612;DHT22;19030;49.478;8.986;2023-04-06T00:32:46;0.20;99.90
32612;DHT22;19030;49.478;8.986;2023-04-06T00:34:47;0.20;99.90
32612;DHT22;19030;49.478;8.986;2023-04-06T00:36:47;0.20;99.90
32612;DHT22;19030;49.478;8.986;2023-04-06T00:38:48;0.20;99.90
32612;DHT22;19030;49.478;8.986;2023-04-06T00:40:48;0.10;99.90
32612;DHT22;19030;49.478;8.986;2023-04-06T00:42:49;0.10;99.90
32612;DHT22;19030;49.478;8.986;2023-04-06T00:44:50;0.10;99.90
32612;DHT22;19030;49.478;8.986;2023-04-06T00:46:51;0.10;99.90
32612;DHT22;19030;49.478;8.986;2023-04-06T00:48:51;0.00;99.90
32612;DHT22;19030;49.478;8.986;2023-04-06T00:50:52;0.00;99.90
32612;DHT22;19030;49.478;8.986;2023-04-06T00:52:53;0.00;99.90
32612;DHT22;19030;49.478;8.986;2023-04-06T00:54:59;0.00;99.90
32612;DHT22;19030;49.478;8.986;2023-04-06T00:57:00;0.00;99.90
32612;DHT22;19030;49.478;8.986;2023-04-06T00:59:03;-0.10;99.90
32612;DHT22;19030;49.478;8.986;2023-04-06T01:01:04;-0.10;99.90
32612;DHT22;19030;49.478;8.986;2023-04-06T01:03:07;-0.10;99.90
32612;DHT22;19030;49.478;8.986;2023-04-06T01:05:13;0.00;99.90
32612;DHT22;19030;49.478;8.986;2023-04-06T01:07:23;0.00;99.90
32612;DHT22;19030;49.478;8.986;2023-04-06T01:09:37;0.00;99.90
32612;DHT22;19030;49.478;8.986;2023-04-06T01:11:48;0.10;99.90
32612;DHT22;19030;49.478;8.986;2023-04-06T01:13:52;0.10;99.90
32612;DHT22;19030;49.478;8.986;2023-04-06T01:16:10;0.10;99.90
32612;DHT22;19030;49.478;8.986;2023-04-06T01:18:32;0.20;99.90
32612;DHT22;19030;49.478;8.986;2023-04-06T01:20:46;0.20;99.90
32612;DHT22;19030;49.478;8.986;2023-04-06T01:22:49;0.30;99.90
32612;DHT22;19030;49.478;8.986;2023-04-06T01:24:50;0.30;99.90
32612;DHT22;19030;49.478;8.986;2023-04-06T01:26:57;0.30;99.90
32612;DHT22;19030;49.478;8.986;2023-04-06T01:28:59;0.30;99.90
32612;DHT22;19030;49.478;8.986;2023-04-06T01:31:03;0.30;99.90
32612;DHT22;19030;49.478;8.986;2023-04-06T01:33:19;0.30;99.90
32612;DHT22;19030;49.478;8.986;2023-04-06T01:35:33;0.30;99.90
32612;DHT22;19030;49.478;8.986;2023-04-06T01:37:45;0.20;99.90
32612;DHT22;19030;49.478;8.986;2023-04-06T01:39:50;0.20;99.90
32612;DHT22;19030;49.478;8.986;2023-04-06T01:42:00;0.10;99.90
32612;DHT22;19030;49.478;8.986;2023-04-06T01:44:01;0.10;99.90
32612;DHT22;19030;49.478;8.986;2023-04-06T01:46:04;0.10;99.90
32612;DHT22;19030;49.478;8.986;2023-04-06T01:48:09;0.00;99.90
32612;DHT22;19030;49.478;8.986;2023-04-06T01:50:09;0.00;99.90
32612;DHT22;19030;49.478;8.986;2023-04-06T01:52:15;0.00;99.90
32612;DHT22;19030;49.478;8.986;2023-04-06T01:54:21;0.00;99.90
32612;DHT22;19030;49.478;8.986;2023-04-06T01:56:41;0.00;99.90
32612;DHT22;19030;49.478;8.986;2023-04-06T01:58:59;0.00;99.90
32612;DHT22;19030;49.478;8.986;2023-04-06T02:01:06;0.00;99.90
32612;DHT22;19030;49.478;8.986;2023-04-06T02:03:19;0.00;99.90
32612;DHT22;19030;49.478;8.986;2023-04-06T02:05:21;0.00;99.90
32612;DHT22;19030;49.478;8.986;2023-04-06T02:07:21;-0.10;99.90
32612;DHT22;19030;49.478;8.986;2023-04-06T02:09:22;-0.10;99.90
32612;DHT22;19030;49.478;8.986;2023-04-06T02:11:23;-0.10;99.90
32612;DHT22;19030;49.478;8.986;2023-04-06T02:13:28;-0.10;99.90
32612;DHT22;19030;49.478;8.986;2023-04-06T02:15:29;-0.10;99.90
32612;DHT22;19030;49.478;8.986;2023-04-06T02:17:30;-0.10;99.90
32612;DHT22;19030;49.478;8.986;2023-04-06T02:19:31;-0.10;99.90
32612;DHT22;19030;49.478;8.986;2023-04-06T02:21:31;-0.10;99.90
32612;DHT22;19030;49.478;8.986;2023-04-06T02:23:32;-0.10;99.90
32612;DHT22;19030;49.478;8.986;2023-04-06T02:25:33;-0.10;99.90
32612;DHT22;19030;49.478;8.986;2023-04-06T02:27:33;-0.10;99.90
32612;DHT22;19030;49.478;8.986;2023-04-06T02:29:34;-0.10;99.90
32612;DHT22;19030;49.478;8.986;2023-04-06T02:31:35;-0.10;99.90
32612;DHT22;19030;49.478;8.986;2023-04-06T02:33:36;-0.10;99.90
32612;DHT22;19030;49.478;8.986;2023-04-06T02:35:38;-0.10;99.90
32612;DHT22;19030;49.478;8.986;2023-04-06T02:37:38;-0.20;99.90
32612;DHT22;19030;49.478;8.986;2023-04-06T02:39:39;-0.20;99.90
32612;DHT22;19030;49.478;8.986;2023-04-06T02:41:42;-0.20;99.90
32612;DHT22;19030;49.478;8.986;2023-04-06T02:43:44;-0.20;99.90
32612;DHT22;19030;49.478;8.986;2023-04-06T02:45:52;-0.30;99.90
32612;DHT22;19030;49.478;8.986;2023-04-06T02:47:55;-0.30;99.90
32612;DHT22;19030;49.478;8.986;2023-04-06T02:49:57;-0.40;99.90
32612;DHT22;19030;49.478;8.986;2023-04-06T02:51:57;-0.40;99.90
32612;DHT22;19030;49.478;8.986;2023-04-06T02:54:05;-0.40;99.90
32612;DHT22;19030;49.478;8.986;2023-04-06T02:56:06;-0.50;99.90
32612;DHT22;19030;49.478;8.986;2023-04-06T02:58:17;-0.50;99.90
32612;DHT22;19030;49.478;8.986;2023-04-06T03:00:22;-0.50;99.90
32612;DHT22;19030;49.478;8.986;2023-04-06T03:02:23;-0.50;99.90
32612;DHT22;19030;49.478;8.986;2023-04-06T03:04:24;-0.60;99.90
32612;DHT22;19030;49.478;8.986;2023-04-06T03:06:26;-0.60;99.90
32612;DHT22;19030;49.478;8.986;2023-04-06T03:08:31;-0.70;99.90
32612;DHT22;19030;49.478;8.986;2023-04-06T03:10:32;-0.70;99.90
32612;DHT22;19030;49.478;8.986;2023-04-06T03:12:32;-0.70;99.90
32612;DHT22;19030;49.478;8.986;2023-04-06T03:14:47;-0.70;99.90
32612;DHT22;19030;49.478;8.986;2023-04-06T03:16:48;-0.70;99.90
32612;DHT22;19030;49.478;8.986;2023-04-06T03:18:53;-0.80;99.90
32612;DHT22;19030;49.478;8.986;2023-04-06T03:20:55;-0.80;99.90
32612;DHT22;19030;49.478;8.986;2023-04-06T03:23:00;-0.80;99.90
32612;DHT22;19030;49.478;8.986;2023-04-06T03:25:04;-0.80;99.90
32612;DHT22;19030;49.478;8.986;2023-04-06T03:27:06;-0.80;99.90
32612;DHT22;19030;49.478;8.986;2023-04-06T03:29:08;-0.80;99.90
32612;DHT22;19030;49.478;8.986;2023-04-06T03:31:09;-0.80;99.90
32612;DHT22;19030;49.478;8.986;2023-04-06T03:33:26;-0.80;99.90
32612;DHT22;19030;49.478;8.986;2023-04-06T03:35:30;-0.80;99.90
32612;DHT22;19030;49.478;8.986;2023-04-06T03:37:31;-0.80;99.90
32612;DHT22;19030;49.478;8.986;2023-04-06T03:39:36;-0.80;99.90
32612;DHT22;19030;49.478;8.986;2023-04-06T03:41:38;-0.80;99.90
32612;DHT22;19030;49.478;8.986;2023-04-06T03:43:48;-0.80;99.90
32612;DHT22;19030;49.478;8.986;2023-04-06T03:45:49;-0.90;99.90
32612;DHT22;19030;49.478;8.986;2023-04-06T03:47:50;-0.90;99.90
32612;DHT22;19030;49.478;8.986;2023-04-06T03:49:51;-0.90;99.90
32612;DHT22;19030;49.478;8.986;2023-04-06T03:51:52;-0.90;99.90
32612;DHT22;19030;49.478;8.986;2023-04-06T03:53:53;-0.90;99.90
32612;DHT22;19030;49.478;8.986;2023-04-06T03:55:53;-1.00;99.90
32612;DHT22;19030;49.478;8.986;2023-04-06T03:57:55;-0.90;99.90
32612;DHT22;19030;49.478;8.986;2023-04-06T03:59:55;-0.90;99.90
32612;DHT22;19030;49.478;8.986;2023-04-06T04:01:59;-0.90;99.90
32612;DHT22;19030;49.478;8.986;2023-04-06T04:04:00;-1.00;99.90
32612;DHT22;19030;49.478;8.986;2023-04-06T04:06:00;-1.00;99.90
32612;DHT22;19030;49.478;8.986;2023-04-06T04:08:01;-1.00;99.90
32612;DHT22;19030;49.478;8.986;2023-04-06T04:10:02;-1.00;99.90
32612;DHT22;19030;49.478;8.986;2023-04-06T04:12:06;-1.00;99.90
32612;DHT22;19030;49.478;8.986;2023-04-06T04:14:07;-1.10;99.90
32612;DHT22;19030;49.478;8.986;2023-04-06T04:16:07;-1.10;99.90
32612;DHT22;19030;49.478;8.986;2023-04-06T04:18:09;-1.10;99.90
32612;DHT22;19030;49.478;8.986;2023-04-06T04:20:10;-1.10;99.90
32612;DHT22;19030;49.478;8.986;2023-04-06T04:22:11;-1.10;99.90
32612;DHT22;19030;49.478;8.986;2023-04-06T04:24:14;-1.10;99.90
32612;DHT22;19030;49.478;8.986;2023-04-06T04:26:14;-1.10;99.90
32612;DHT22;19030;49.478;8.986;2023-04-06T04:28:18;-1.20;99.90
32612;DHT22;19030;49.478;8.986;2023-04-06T04:30:20;-1.20;99.90
32612;DHT22;19030;49.478;8.986;2023-04-06T04:32:21;-1.20;99.90
32612;DHT22;19030;49.478;8.986;2023-04-06T04:34:23;-1.20;99.90
32612;DHT22;19030;49.478;8.986;2023-04-06T04:36:27;-1.20;99.90
32612;DHT22;19030;49.478;8.986;2023-04-06T04:38:29;-1.20;99.90
32612;DHT22;19030;49.478;8.986;2023-04-06T04:40:31;-1.20;99.90
32612;DHT22;19030;49.478;8.986;2023-04-06T04:42:40;-1.30;99.90
32612;DHT22;19030;49.478;8.986;2023-04-06T04:44:43;-1.30;99.90
32612;DHT22;19030;49.478;8.986;2023-04-06T04:46:44;-1.30;99.90
32612;DHT22;19030;49.478;8.986;2023-04-06T04:48:47;-1.30;99.90
32612;DHT22;19030;49.478;8.986;2023-04-06T04:50:47;-1.30;99.90
32612;DHT22;19030;49.478;8.986;2023-04-06T04:52:50;-1.30;99.90
32612;DHT22;19030;49.478;8.986;2023-04-06T04:54:55;-1.30;99.90
32612;DHT22;19030;49.478;8.986;2023-04-06T04:57:00;-1.30;99.90
32612;DHT22;19030;49.478;8.986;2023-04-06T04:59:14;-1.20;99.90
32612;DHT22;19030;49.478;8.986;2023-04-06T05:01:20;-1.30;99.90
32612;DHT22;19030;49.478;8.986;2023-04-06T05:03:22;-1.30;99.90
32612;DHT22;19030;49.478;8.986;2023-04-06T05:05:30;-1.20;99.90
32612;DHT22;19030;49.478;8.986;2023-04-06T05:07:31;-1.20;99.90
32612;DHT22;19030;49.478;8.986;2023-04-06T05:09:34;-1.30;99.90
32612;DHT22;19030;49.478;8.986;2023-04-06T05:11:35;-1.20;99.90
32612;DHT22;19030;49.478;8.986;2023-04-06T05:13:36;-1.20;99.90
32612;DHT22;19030;49.478;8.986;2023-04-06T05:15:42;-1.20;99.90
32612;DHT22;19030;49.478;8.986;2023-04-06T05:17:55;-1.20;99.90
32612;DHT22;19030;49.478;8.986;2023-04-06T05:20:02;-1.20;99.90
32612;DHT22;19030;49.478;8.986;2023-04-06T05:22:07;-1.10;99.90
32612;DHT22;19030;49.478;8.986;2023-04-06T05:24:11;-1.10;99.90
32612;DHT22;19030;49.478;8.986;2023-04-06T05:26:12;-1.00;99.90
32612;DHT22;19030;49.478;8.986;2023-04-06T05:28:13;-0.90;99.90
32612;DHT22;19030;49.478;8.986;2023-04-06T05:30:16;-0.80;99.90
32612;DHT22;19030;49.478;8.986;2023-04-06T05:32:19;-0.80;99.90
32612;DHT22;19030;49.478;8.986;2023-04-06T05:34:24;-0.70;99.90
32612;DHT22;19030;49.478;8.986;2023-04-06T05:36:25;-0.60;99.90
32612;DHT22;19030;49.478;8.986;2023-04-06T05:38:26;-0.50;99.90
32612;DHT22;19030;49.478;8.986;2023-04-06T05:40:29;-0.40;99.90
32612;DHT22;19030;49.478;8.986;2023-04-06T05:42:40;-0.30;99.90
32612;DHT22;19030;49.478;8.986;2023-04-06T05:44:41;-0.10;99.90
32612;DHT22;19030;49.478;8.986;2023-04-06T05:46:46;0.10;99.90
32612;DHT22;19030;49.478;8.986;2023-04-06T05:48:49;0.30;99.90
32612;DHT22;19030;49.478;8.986;2023-04-06T05:50:50;0.50;99.90
32612;DHT22;19030;49.478;8.986;2023-04-06T05:52:55;0.50;99.90
32612;DHT22;19030;49.478;8.986;2023-04-06T05:54:58;0.50;99.90
32612;DHT22;19030;49.478;8.986;2023-04-06T05:57:01;0.40;99.90
32612;DHT22;19030;49.478;8.986;2023-04-06T05:59:02;0.30;99.90
32612;DHT22;19030;49.478;8.986;2023-04-06T06:01:04;0.30;99.90
32612;DHT22;19030;49.478;8.986;2023-04-06T06:03:13;0.40;99.90
32612;DHT22;19030;49.478;8.986;2023-04-06T06:05:18;0.50;99.90
32612;DHT22;19030;49.478;8.986;2023-04-06T06:07:20;0.90;99.90
32612;DHT22;19030;49.478;8.986;2023-04-06T06:09:28;1.80;99.90
32612;DHT22;19030;49.478;8.986;2023-04-06T06:11:37;2.80;99.90
32612;DHT22;19030;49.478;8.986;2023-04-06T06:13:38;3.80;99.90
32612;DHT22;19030;49.478;8.986;2023-04-06T06:15:39;4.60;99.90
32612;DHT22;19030;49.478;8.986;2023-04-06T06:17:40;5.10;99.90
32612;DHT22;19030;49.478;8.986;2023-04-06T06:19:41;5.40;99.90
32612;DHT22;19030;49.478;8.986;2023-04-06T06:21:42;5.80;99.90
32612;DHT22;19030;49.478;8.986;2023-04-06T06:23:43;6.30;99.90
32612;DHT22;19030;49.478;8.986;2023-04-06T06:25:47;6.60;98.50
32612;DHT22;19030;49.478;8.986;2023-04-06T06:27:47;6.90;97.70
32612;DHT22;19030;49.478;8.986;2023-04-06T06:29:50;7.30;96.20
32612;DHT22;19030;49.478;8.986;2023-04-06T06:31:51;7.70;94.30
32612;DHT22;19030;49.478;8.986;2023-04-06T06:33:52;8.20;91.90
32612;DHT22;19030;49.478;8.986;2023-04-06T06:35:54;8.50;89.50
32612;DHT22;19030;49.478;8.986;2023-04-06T06:37:54;8.70;86.90
32612;DHT22;19030;49.478;8.986;2023-04-06T06:39:58;9.00;83.20
32612;DHT22;19030;49.478;8.986;2023-04-06T06:41:59;9.10;80.00
32612;DHT22;19030;49.478;8.986;2023-04-06T06:44:18;9.10;78.40
32612;DHT22;19030;49.478;8.986;2023-04-06T06:46:19;8.90;77.60
32612;DHT22;19030;49.478;8.986;2023-04-06T06:48:20;8.80;78.20
32612;DHT22;19030;49.478;8.986;2023-04-06T06:50:20;8.90;78.30
32612;DHT22;19030;49.478;8.986;2023-04-06T06:52:21;9.00;77.60
32612;DHT22;19030;49.478;8.986;2023-04-06T06:54:23;9.20;75.90
32612;DHT22;19030;49.478;8.986;2023-04-06T06:56:24;9.40;75.40
32612;DHT22;19030;49.478;8.986;2023-04-06T06:58:27;9.60;73.40
32612;DHT22;19030;49.478;8.986;2023-04-06T07:00:28;9.50;72.30
32612;DHT22;19030;49.478;8.986;2023-04-06T07:02:29;9.40;72.90
32612;DHT22;19030;49.478;8.986;2023-04-06T07:04:31;9.10;72.40
32612;DHT22;19030;49.478;8.986;2023-04-06T07:06:32;9.00;74.50
32612;DHT22;19030;49.478;8.986;2023-04-06T07:08:32;9.00;74.70
32612;DHT22;19030;49.478;8.986;2023-04-06T07:10:33;9.20;74.10
32612;DHT22;19030;49.478;8.986;2023-04-06T07:12:34;9.30;74.00
32612;DHT22;19030;49.478;8.986;2023-04-06T07:14:34;9.50;72.60
32612;DHT22;19030;49.478;8.986;2023-04-06T07:16:37;9.70;72.00
32612;DHT22;19030;49.478;8.986;2023-04-06T07:18:38;9.80;72.40
32612;DHT22;19030;49.478;8.986;2023-04-06T07:20:39;9.80;71.10
32612;DHT22;19030;49.478;8.986;2023-04-06T07:22:41;9.90;70.60
32612;DHT22;19030;49.478;8.986;2023-04-06T07:24:42;10.00;69.30
32612;DHT22;19030;49.478;8.986;2023-04-06T07:26:42;10.20;68.50
32612;DHT22;19030;49.478;8.986;2023-04-06T07:28:43;10.10;68.20
32612;DHT22;19030;49.478;8.986;2023-04-06T07:30:46;10.00;68.60
32612;DHT22;19030;49.478;8.986;2023-04-06T07:32:48;9.90;67.80
32612;DHT22;19030;49.478;8.986;2023-04-06T07:34:48;10.00;68.40
32612;DHT22;19030;49.478;8.986;2023-04-06T07:36:50;10.10;67.80
32612;DHT22;19030;49.478;8.986;2023-04-06T07:38:53;10.20;68.20
32612;DHT22;19030;49.478;8.986;2023-04-06T07:40:54;10.40;67.00
32612;DHT22;19030;49.478;8.986;2023-04-06T07:42:54;10.50;66.20
32612;DHT22;19030;49.478;8.986;2023-04-06T07:44:55;10.60;65.50
32612;DHT22;19030;49.478;8.986;2023-04-06T07:46:56;10.80;65.70
32612;DHT22;19030;49.478;8.986;2023-04-06T07:48:58;11.00;64.90
32612;DHT22;19030;49.478;8.986;2023-04-06T07:51:03;11.10;63.50
32612;DHT22;19030;49.478;8.986;2023-04-06T07:53:05;11.20;62.80
32612;DHT22;19030;49.478;8.986;2023-04-06T07:55:06;11.30;61.80
32612;DHT22;19030;49.478;8.986;2023-04-06T07:57:06;11.40;61.80
32612;DHT22;19030;49.478;8.986;2023-04-06T07:59:07;11.50;61.50
32612;DHT22;19030;49.478;8.986;2023-04-06T08:01:07;11.70;60.60
32612;DHT22;19030;49.478;8.986;2023-04-06T08:03:08;11.90;60.00
32612;DHT22;19030;49.478;8.986;2023-04-06T08:05:09;11.90;58.10
32612;DHT22;19030;49.478;8.986;2023-04-06T08:07:09;12.10;58.40
32612;DHT22;19030;49.478;8.986;2023-04-06T08:09:10;12.20;58.50
32612;DHT22;19030;49.478;8.986;2023-04-06T08:11:10;12.50;58.00
32612;DHT22;19030;49.478;8.986;2023-04-06T08:13:11;12.80;57.40
32612;DHT22;19030;49.478;8.986;2023-04-06T08:15:12;12.90;56.00
32612;DHT22;19030;49.478;8.986;2023-04-06T08:17:12;12.80;55.30
32612;DHT22;19030;49.478;8.986;2023-04-06T08:19:13;12.90;55.50
32612;DHT22;19030;49.478;8.986;2023-04-06T08:21:13;13.00;55.40
32612;DHT22;19030;49.478;8.986;2023-04-06T08:23:14;13.30;54.60
32612;DHT22;19030;49.478;8.986;2023-04-06T08:25:14;13.60;53.20
32612;DHT22;19030;49.478;8.986;2023-04-06T08:27:15;13.90;53.90
32612;DHT22;19030;49.478;8.986;2023-04-06T08:29:15;14.20;52.60
32612;DHT22;19030;49.478;8.986;2023-04-06T08:31:16;14.50;52.50
32612;DHT22;19030;49.478;8.986;2023-04-06T08:33:17;14.90;51.40
32612;DHT22;19030;49.478;8.986;2023-04-06T08:35:17;15.20;49.20
32612;DHT22;19030;49.478;8.986;2023-04-06T08:37:18;15.50;48.40
32612;DHT22;19030;49.478;8.986;2023-04-06T08:39:18;15.90;48.90
32612;DHT22;19030;49.478;8.986;2023-04-06T08:41:25;16.30;46.80
32612;DHT22;19030;49.478;8.986;2023-04-06T08:43:27;16.60;45.60
32612;DHT22;19030;49.478;8.986;2023-04-06T08:45:28;17.10;43.80
32612;DHT22;19030;49.478;8.986;2023-04-06T08:47:29;17.90;42.20
32612;DHT22;19030;49.478;8.986;2023-04-06T08:49:30;18.90;39.50
32612;DHT22;19030;49.478;8.986;2023-04-06T08:51:32;20.00;37.50
32612;DHT22;19030;49.478;8.986;2023-04-06T08:53:32;21.20;34.50
32612;DHT22;19030;49.478;8.986;2023-04-06T08:55:33;22.00;32.70
32612;DHT22;19030;49.478;8.986;2023-04-06T08:57:36;22.40;31.50
32612;DHT22;19030;49.478;8.986;2023-04-06T08:59:36;23.20;30.60
32612;DHT22;19030;49.478;8.986;2023-04-06T09:01:39;23.60;30.80
32612;DHT22;19030;49.478;8.986;2023-04-06T09:03:42;24.30;28.70
32612;DHT22;19030;49.478;8.986;2023-04-06T09:05:43;24.70;28.30
32612;DHT22;19030;49.478;8.986;2023-04-06T09:07:45;24.90;28.30
32612;DHT22;19030;49.478;8.986;2023-04-06T09:09:46;25.30;27.30
32612;DHT22;19030;49.478;8.986;2023-04-06T09:11:51;25.20;26.70
32612;DHT22;19030;49.478;8.986;2023-04-06T09:13:56;25.60;27.10
32612;DHT22;19030;49.478;8.986;2023-04-06T09:16:04;25.70;26.00
32612;DHT22;19030;49.478;8.986;2023-04-06T09:18:06;26.00;26.70
32612;DHT22;19030;49.478;8.986;2023-04-06T09:20:08;26.60;26.10
32612;DHT22;19030;49.478;8.986;2023-04-06T09:22:09;26.50;25.20
32612;DHT22;19030;49.478;8.986;2023-04-06T09:24:10;27.10;25.10
32612;DHT22;19030;49.478;8.986;2023-04-06T09:26:15;27.20;25.30
32612;DHT22;19030;49.478;8.986;2023-04-06T09:28:16;27.20;24.70
32612;DHT22;19030;49.478;8.986;2023-04-06T09:30:17;27.40;24.90
32612;DHT22;19030;49.478;8.986;2023-04-06T09:32:18;27.70;25.50
32612;DHT22;19030;49.478;8.986;2023-04-06T09:34:22;28.30;24.60
32612;DHT22;19030;49.478;8.986;2023-04-06T09:36:34;28.90;23.40
32612;DHT22;19030;49.478;8.986;2023-04-06T09:38:38;28.90;23.10
32612;DHT22;19030;49.478;8.986;2023-04-06T09:40:50;29.00;23.10
32612;DHT22;19030;49.478;8.986;2023-04-06T09:42:51;29.10;23.50
32612;DHT22;19030;49.478;8.986;2023-04-06T09:44:57;29.50;22.60
32612;DHT22;19030;49.478;8.986;2023-04-06T09:46:58;29.50;22.30
32612;DHT22;19030;49.478;8.986;2023-04-06T09:49:00;29.20;22.20
32612;DHT22;19030;49.478;8.986;2023-04-06T09:51:04;28.80;23.40
32612;DHT22;19030;49.478;8.986;2023-04-06T09:53:05;27.60;23.40
32612;DHT22;19030;49.478;8.986;2023-04-06T09:55:08;27.20;24.60
32612;DHT22;19030;49.478;8.986;2023-04-06T09:57:23;27.20;25.20
32612;DHT22;19030;49.478;8.986;2023-04-06T10:01:39;25.60;24.60
32612;DHT22;19030;49.478;8.986;2023-04-06T10:06:04;24.50;25.00
32612;DHT22;19030;49.478;8.986;2023-04-06T10:08:12;24.20;25.90
32612;DHT22;19030;49.478;8.986;2023-04-06T10:10:14;25.70;24.90
32612;DHT22;19030;49.478;8.986;2023-04-06T10:12:16;26.40;24.30
32612;DHT22;19030;49.478;8.986;2023-04-06T10:14:17;27.30;25.50
32612;DHT22;19030;49.478;8.986;2023-04-06T10:16:18;28.10;23.00
32612;DHT22;19030;49.478;8.986;2023-04-06T10:18:18;28.20;22.40
32612;DHT22;19030;49.478;8.986;2023-04-06T10:20:34;28.40;22.40
32612;DHT22;19030;49.478;8.986;2023-04-06T10:22:49;28.10;22.70
32612;DHT22;19030;49.478;8.986;2023-04-06T10:24:54;27.60;22.40
32612;DHT22;19030;49.478;8.986;2023-04-06T10:26:57;27.60;22.40
32612;DHT22;19030;49.478;8.986;2023-04-06T10:29:03;28.10;22.10
32612;DHT22;19030;49.478;8.986;2023-04-06T10:31:06;27.70;22.20
32612;DHT22;19030;49.478;8.986;2023-04-06T10:33:17;26.40;22.80
32612;DHT22;19030;49.478;8.986;2023-04-06T10:35:17;25.80;23.10
32612;DHT22;19030;49.478;8.986;2023-04-06T10:37:18;25.70;23.60
32612;DHT22;19030;49.478;8.986;2023-04-06T10:39:25;25.70;23.30
32612;DHT22;19030;49.478;8.986;2023-04-06T10:41:33;24.70;23.90
32612;DHT22;19030;49.478;8.986;2023-04-06T10:43:36;24.10;24.50
32612;DHT22;19030;49.478;8.986;2023-04-06T10:45:36;23.40;25.10
32612;DHT22;19030;49.478;8.986;2023-04-06T10:47:41;21.60;26.40
32612;DHT22;19030;49.478;8.986;2023-04-06T10:49:41;20.50;27.30
32612;DHT22;19030;49.478;8.986;2023-04-06T10:51:42;20.20;28.00
32612;DHT22;19030;49.478;8.986;2023-04-06T10:53:44;20.20;28.90
32612;DHT22;19030;49.478;8.986;2023-04-06T10:55:47;20.10;28.30
32612;DHT22;19030;49.478;8.986;2023-04-06T10:57:49;19.90;28.70
32612;DHT22;19030;49.478;8.986;2023-04-06T10:59:53;19.60;29.00
32612;DHT22;19030;49.478;8.986;2023-04-06T11:01:53;19.80;28.80
32612;DHT22;19030;49.478;8.986;2023-04-06T11:03:56;19.60;29.20
32612;DHT22;19030;49.478;8.986;2023-04-06T11:05:59;19.30;29.10
32612;DHT22;19030;49.478;8.986;2023-04-06T11:08:00;19.10;29.80
32612;DHT22;19030;49.478;8.986;2023-04-06T11:10:00;18.90;30.40
32612;DHT22;19030;49.478;8.986;2023-04-06T11:12:01;19.00;29.60
32612;DHT22;19030;49.478;8.986;2023-04-06T11:14:01;18.90;30.00
32612;DHT22;19030;49.478;8.986;2023-04-06T11:16:04;19.10;32.20
32612;DHT22;19030;49.478;8.986;2023-04-06T11:18:04;19.60;31.00
32612;DHT22;19030;49.478;8.986;2023-04-06T11:20:10;19.70;29.40
32612;DHT22;19030;49.478;8.986;2023-04-06T11:22:11;20.10;29.20
32612;DHT22;19030;49.478;8.986;2023-04-06T11:24:19;19.70;28.50
32612;DHT22;19030;49.478;8.986;2023-04-06T11:26:20;18.90;29.30
32612;DHT22;19030;49.478;8.986;2023-04-06T11:28:21;18.70;29.70
32612;DHT22;19030;49.478;8.986;2023-04-06T11:30:21;19.10;30.50
32612;DHT22;19030;49.478;8.986;2023-04-06T11:32:22;19.50;29.70
32612;DHT22;19030;49.478;8.986;2023-04-06T11:34:25;19.70;30.00
32612;DHT22;19030;49.478;8.986;2023-04-06T11:36:27;19.90;29.20
32612;DHT22;19030;49.478;8.986;2023-04-06T11:38:30;19.50;29.20
32612;DHT22;19030;49.478;8.986;2023-04-06T11:40:31;19.40;29.40
32612;DHT22;19030;49.478;8.986;2023-04-06T11:42:34;18.90;29.70
32612;DHT22;19030;49.478;8.986;2023-04-06T11:44:42;18.80;30.00
32612;DHT22;19030;49.478;8.986;2023-04-06T11:46:52;18.90;29.80
32612;DHT22;19030;49.478;8.986;2023-04-06T11:48:58;19.00;29.90
32612;DHT22;19030;49.478;8.986;2023-04-06T11:50:59;18.70;29.30
32612;DHT22;19030;49.478;8.986;2023-04-06T11:53:02;18.40;30.00
32612;DHT22;19030;49.478;8.986;2023-04-06T11:55:16;18.90;30.50
32612;DHT22;19030;49.478;8.986;2023-04-06T11:57:18;19.30;30.00
32612;DHT22;19030;49.478;8.986;2023-04-06T11:59:18;19.00;29.60
32612;DHT22;19030;49.478;8.986;2023-04-06T12:01:20;18.80;29.40
32612;DHT22;19030;49.478;8.986;2023-04-06T12:03:20;18.60;30.20
32612;DHT22;19030;49.478;8.986;2023-04-06T12:05:21;18.20;30.10
32612;DHT22;19030;49.478;8.986;2023-04-06T12:07:22;18.30;30.40
32612;DHT22;19030;49.478;8.986;2023-04-06T12:09:22;18.90;30.00
32612;DHT22;19030;49.478;8.986;2023-04-06T12:11:23;19.60;30.20
32612;DHT22;19030;49.478;8.986;2023-04-06T12:13:23;20.10;29.00
32612;DHT22;19030;49.478;8.986;2023-04-06T12:15:24;19.60;28.70
32612;DHT22;19030;49.478;8.986;2023-04-06T12:17:24;19.50;29.40
32612;DHT22;19030;49.478;8.986;2023-04-06T12:19:25;19.20;29.60
32612;DHT22;19030;49.478;8.986;2023-04-06T12:21:30;18.90;29.40
32612;DHT22;19030;49.478;8.986;2023-04-06T12:23:31;18.80;29.80
32612;DHT22;19030;49.478;8.986;2023-04-06T12:25:31;18.60;30.00
32612;DHT22;19030;49.478;8.986;2023-04-06T12:27:32;18.70;29.90
32612;DHT22;19030;49.478;8.986;2023-04-06T12:29:33;19.00;30.40
32612;DHT22;19030;49.478;8.986;2023-04-06T12:31:37;19.20;29.60
32612;DHT22;19030;49.478;8.986;2023-04-06T12:33:39;19.10;29.30
32612;DHT22;19030;49.478;8.986;2023-04-06T12:35:40;18.80;29.70
32612;DHT22;19030;49.478;8.986;2023-04-06T12:37:41;18.70;29.60
32612;DHT22;19030;49.478;8.986;2023-04-06T12:39:42;18.40;29.60
32612;DHT22;19030;49.478;8.986;2023-04-06T12:41:44;18.30;29.90
32612;DHT22;19030;49.478;8.986;2023-04-06T12:43:45;18.30;29.80
32612;DHT22;19030;49.478;8.986;2023-04-06T12:45:46;18.10;29.90
32612;DHT22;19030;49.478;8.986;2023-04-06T12:47:47;17.80;29.90
32612;DHT22;19030;49.478;8.986;2023-04-06T12:49:47;17.90;30.00
32612;DHT22;19030;49.478;8.986;2023-04-06T12:51:48;17.70;30.70
32612;DHT22;19030;49.478;8.986;2023-04-06T12:53:48;17.60;31.30
32612;DHT22;19030;49.478;8.986;2023-04-06T12:55:49;17.70;31.40
32612;DHT22;19030;49.478;8.986;2023-04-06T12:57:50;17.70;31.50
32612;DHT22;19030;49.478;8.986;2023-04-06T12:59:50;17.50;31.00
32612;DHT22;19030;49.478;8.986;2023-04-06T13:01:51;17.50;31.70
32612;DHT22;19030;49.478;8.986;2023-04-06T13:03:53;17.70;32.00